Flight Number: EUR2033 Duration: 0:45
Departure: Munich Int'l (EDDM) at 06:45 Distance: 192 Nm
Arrival: Vienna Schwechat (LOWW) at 07:30 Equipment: B737

Weather Information
Munchen, Germany (EDDM) 48-21N 011-47E Feb 19, 2018 - 02:50 AM EST / 2018.02.19 0750 UTC
Wind: Variable at 2 MPH (2 KT):0
Visibility: greater than 7 mile(s):0
Sky conditions: mostly cloudy Temperature: 26 F (-3 C) Dew Point: 23 F (-5 C) Relative Humidity: 86% Pressure (altimeter): 30.09 in. Hg (1019 hPa)
ob: EDDM 190750Z VRB02KT 9999 BKN010 M03/M05 Q1019 R88/190095 TEMPO BKN008 cycle: 8
Sunrise: 06:15 Sunset: 16:37 (UTC)

Wien / Schwechat-Flughafen, Austria (LOWW) 48-07N 016-34E 190M Feb 19, 2018 - 02:20 AM EST / 2018.02.19 0720 UTC
Wind: from the E (080 degrees) at 2 MPH (2 KT):0
Visibility: 4 mile(s):0
Sky conditions: mostly clear Temperature: 26 F (-3 C) Dew Point: 23 F (-5 C) Relative Humidity: 86% Pressure (altimeter): 30.24 in. Hg (1024 hPa)
ob: LOWW 190720Z 08002KT 8000 FEW200 M03/M05 Q1024 R88/12//95 NOSIG cycle: 7
Sunrise: 05:56 Sunset: 16:18 (UTC)

TAF:2018/02/19 06:20 TAF LOWW 190515Z 1906/2012 VRB02KT CAVOK TX03/1913Z TNM05/1906Z BECMG 1908/1910 15010KT BECMG 1916/1919 14003KT BECMG 2000/2002 06005KT 8000 -SN FEW020 BKN030 PROB30 TEMPO 2005/2012 2500 SN BKN010

Previous Pireps for this route
Date Aircraft Flight time Fuel used Landing rate On time
2012-09-27B7370.595900-312No
2012-10-23B73701.1010845-584No
2012-12-29B737.4343000No
2013-03-26B7371.1100000No
2013-04-23B7372120000No
2013-05-28B7370.5350000No
2013-07-07B73701.128013-665No
2013-07-09B73700.545867-668No
2013-07-11B73700.465508-398No
2013-07-23B73700.505000-350No
2013-10-26B73701.178464-134No
2014-03-23B73701.098745-348Yes
2014-06-25B7371.2032540No
2014-08-23B73701.056921-175Yes
2014-12-08B73701.0052030Charter
2015-01-12B73701.155483-96Yes
2015-01-13B73701.175392-243Yes
2015-01-27B73701.146651-138Yes
2015-03-12B73700.524863-168Yes
2015-03-28B73700.413913-98Yes
2015-04-06B73700.442904-152Yes
2015-07-12B7370.4651380Yes
2015-07-15B7370.5053240Yes
2015-08-17B77701.4917819-556Charter
2015-12-18B73701.045799-361Charter
2016-07-23B7371.0410312-184Yes
(pireps marked green are flown by you)

Route map